sensor_id;sensor_type;location;lat;lon;timestamp;temperature;humidity
15394;DHT22;7795;47.986;11.868;2022-09-09T00:02:01;17.40;73.90
15394;DHT22;7795;47.986;11.868;2022-09-09T00:04:31;17.40;74.30
15394;DHT22;7795;47.986;11.868;2022-09-09T00:07:03;17.40;74.10
15394;DHT22;7795;47.986;11.868;2022-09-09T00:09:32;17.40;75.00
15394;DHT22;7795;47.986;11.868;2022-09-09T00:12:10;17.30;74.20
15394;DHT22;7795;47.986;11.868;2022-09-09T00:14:43;17.30;74.30
15394;DHT22;7795;47.986;11.868;2022-09-09T00:17:21;17.20;74.30
15394;DHT22;7795;47.986;11.868;2022-09-09T00:19:54;17.20;74.50
15394;DHT22;7795;47.986;11.868;2022-09-09T00:22:23;17.20;74.50
15394;DHT22;7795;47.986;11.868;2022-09-09T00:24:52;17.10;74.40
15394;DHT22;7795;47.986;11.868;2022-09-09T00:27:26;17.10;74.50
15394;DHT22;7795;47.986;11.868;2022-09-09T00:29:58;17.10;74.80
15394;DHT22;7795;47.986;11.868;2022-09-09T00:32:30;17.10;74.80
15394;DHT22;7795;47.986;11.868;2022-09-09T00:34:59;17.10;75.10
15394;DHT22;7795;47.986;11.868;2022-09-09T00:37:28;17.10;75.10
15394;DHT22;7795;47.986;11.868;2022-09-09T00:39:59;17.10;75.30
15394;DHT22;7795;47.986;11.868;2022-09-09T00:42:33;17.00;75.40
15394;DHT22;7795;47.986;11.868;2022-09-09T00:45:10;17.00;75.60
15394;DHT22;7795;47.986;11.868;2022-09-09T00:47:44;17.00;75.80
15394;DHT22;7795;47.986;11.868;2022-09-09T00:50:24;17.00;76.00
15394;DHT22;7795;47.986;11.868;2022-09-09T00:53:04;17.00;75.90
15394;DHT22;7795;47.986;11.868;2022-09-09T00:55:39;17.00;75.90
15394;DHT22;7795;47.986;11.868;2022-09-09T00:58:07;17.00;76.00
15394;DHT22;7795;47.986;11.868;2022-09-09T01:00:40;17.00;75.80
15394;DHT22;7795;47.986;11.868;2022-09-09T01:03:19;17.00;76.10
15394;DHT22;7795;47.986;11.868;2022-09-09T01:05:54;17.00;76.40
15394;DHT22;7795;47.986;11.868;2022-09-09T01:08:35;17.00;77.10
15394;DHT22;7795;47.986;11.868;2022-09-09T01:11:05;17.00;76.40
15394;DHT22;7795;47.986;11.868;2022-09-09T01:13:35;17.00;76.10
15394;DHT22;7795;47.986;11.868;2022-09-09T01:16:03;17.00;76.40
15394;DHT22;7795;47.986;11.868;2022-09-09T01:18:33;17.10;76.40
15394;DHT22;7795;47.986;11.868;2022-09-09T01:21:06;17.10;76.50
15394;DHT22;7795;47.986;11.868;2022-09-09T01:23:50;17.10;76.50
15394;DHT22;7795;47.986;11.868;2022-09-09T01:26:25;17.10;76.60
15394;DHT22;7795;47.986;11.868;2022-09-09T01:28:52;17.10;76.50
15394;DHT22;7795;47.986;11.868;2022-09-09T01:31:21;17.10;76.40
15394;DHT22;7795;47.986;11.868;2022-09-09T01:33:48;17.10;76.50
15394;DHT22;7795;47.986;11.868;2022-09-09T01:36:19;17.20;76.50
15394;DHT22;7795;47.986;11.868;2022-09-09T01:38:46;17.20;76.90
15394;DHT22;7795;47.986;11.868;2022-09-09T01:41:12;17.20;76.60
15394;DHT22;7795;47.986;11.868;2022-09-09T01:43:39;17.20;76.70
15394;DHT22;7795;47.986;11.868;2022-09-09T01:46:05;17.20;76.80
15394;DHT22;7795;47.986;11.868;2022-09-09T01:48:31;17.20;76.80
15394;DHT22;7795;47.986;11.868;2022-09-09T01:50:57;17.20;76.80
15394;DHT22;7795;47.986;11.868;2022-09-09T01:53:23;17.30;76.90
15394;DHT22;7795;47.986;11.868;2022-09-09T01:55:54;17.30;76.90
15394;DHT22;7795;47.986;11.868;2022-09-09T01:58:28;17.30;77.10
15394;DHT22;7795;47.986;11.868;2022-09-09T02:01:05;17.30;77.10
15394;DHT22;7795;47.986;11.868;2022-09-09T02:03:36;17.40;77.10
15394;DHT22;7795;47.986;11.868;2022-09-09T02:06:08;17.40;76.80
15394;DHT22;7795;47.986;11.868;2022-09-09T02:08:43;17.40;77.10
15394;DHT22;7795;47.986;11.868;2022-09-09T02:11:14;17.40;77.20
15394;DHT22;7795;47.986;11.868;2022-09-09T02:13:41;17.40;77.30
15394;DHT22;7795;47.986;11.868;2022-09-09T02:16:13;17.40;77.20
15394;DHT22;7795;47.986;11.868;2022-09-09T02:18:45;17.50;77.50
15394;DHT22;7795;47.986;11.868;2022-09-09T02:21:13;17.50;77.50
15394;DHT22;7795;47.986;11.868;2022-09-09T02:23:41;17.50;77.40
15394;DHT22;7795;47.986;11.868;2022-09-09T02:26:09;17.50;77.60
15394;DHT22;7795;47.986;11.868;2022-09-09T02:28:38;17.50;77.60
15394;DHT22;7795;47.986;11.868;2022-09-09T02:31:05;17.50;77.80
15394;DHT22;7795;47.986;11.868;2022-09-09T02:33:35;17.50;77.80
15394;DHT22;7795;47.986;11.868;2022-09-09T02:36:03;17.50;78.00
15394;DHT22;7795;47.986;11.868;2022-09-09T02:38:35;17.50;77.90
15394;DHT22;7795;47.986;11.868;2022-09-09T02:41:03;17.50;77.90
15394;DHT22;7795;47.986;11.868;2022-09-09T02:43:31;17.60;77.90
15394;DHT22;7795;47.986;11.868;2022-09-09T02:46:03;17.60;78.00
15394;DHT22;7795;47.986;11.868;2022-09-09T02:48:39;17.60;78.20
15394;DHT22;7795;47.986;11.868;2022-09-09T02:51:16;17.60;78.10
15394;DHT22;7795;47.986;11.868;2022-09-09T02:53:49;17.60;78.20
15394;DHT22;7795;47.986;11.868;2022-09-09T02:56:17;17.60;78.10
15394;DHT22;7795;47.986;11.868;2022-09-09T02:58:44;17.60;77.90
15394;DHT22;7795;47.986;11.868;2022-09-09T03:01:10;17.60;77.90
15394;DHT22;7795;47.986;11.868;2022-09-09T03:03:38;17.60;77.90
15394;DHT22;7795;47.986;11.868;2022-09-09T03:06:04;17.60;78.00
15394;DHT22;7795;47.986;11.868;2022-09-09T03:08:31;17.60;77.90
15394;DHT22;7795;47.986;11.868;2022-09-09T03:10:58;17.60;77.90
15394;DHT22;7795;47.986;11.868;2022-09-09T03:13:26;17.60;78.00
15394;DHT22;7795;47.986;11.868;2022-09-09T03:15:52;17.60;77.90
15394;DHT22;7795;47.986;11.868;2022-09-09T03:18:18;17.60;77.90
15394;DHT22;7795;47.986;11.868;2022-09-09T03:20:46;17.60;77.90
15394;DHT22;7795;47.986;11.868;2022-09-09T03:23:14;17.60;78.00
15394;DHT22;7795;47.986;11.868;2022-09-09T03:25:46;17.60;78.70
15394;DHT22;7795;47.986;11.868;2022-09-09T03:28:12;17.60;78.30
15394;DHT22;7795;47.986;11.868;2022-09-09T03:30:38;17.60;78.10
15394;DHT22;7795;47.986;11.868;2022-09-09T03:33:03;17.60;78.20
15394;DHT22;7795;47.986;11.868;2022-09-09T03:35:29;17.60;78.20
15394;DHT22;7795;47.986;11.868;2022-09-09T03:37:56;17.60;78.30
15394;DHT22;7795;47.986;11.868;2022-09-09T03:40:22;17.60;78.30
15394;DHT22;7795;47.986;11.868;2022-09-09T03:42:48;17.60;78.30
15394;DHT22;7795;47.986;11.868;2022-09-09T03:45:14;17.60;79.10
15394;DHT22;7795;47.986;11.868;2022-09-09T03:47:40;17.50;78.30
15394;DHT22;7795;47.986;11.868;2022-09-09T03:50:07;17.60;78.40
15394;DHT22;7795;47.986;11.868;2022-09-09T03:52:35;17.50;78.30
15394;DHT22;7795;47.986;11.868;2022-09-09T03:55:03;17.50;78.30
15394;DHT22;7795;47.986;11.868;2022-09-09T03:57:29;17.50;78.40
15394;DHT22;7795;47.986;11.868;2022-09-09T03:59:55;17.50;78.30
15394;DHT22;7795;47.986;11.868;2022-09-09T04:02:21;17.50;78.30
15394;DHT22;7795;47.986;11.868;2022-09-09T04:04:47;17.50;78.30
15394;DHT22;7795;47.986;11.868;2022-09-09T04:07:12;17.50;78.30
15394;DHT22;7795;47.986;11.868;2022-09-09T04:09:38;17.50;78.30
15394;DHT22;7795;47.986;11.868;2022-09-09T04:12:06;17.40;78.20
15394;DHT22;7795;47.986;11.868;2022-09-09T04:14:32;17.40;78.30
15394;DHT22;7795;47.986;11.868;2022-09-09T04:16:57;17.40;78.30
15394;DHT22;7795;47.986;11.868;2022-09-09T04:19:25;17.40;78.40
15394;DHT22;7795;47.986;11.868;2022-09-09T04:21:51;17.30;78.40
15394;DHT22;7795;47.986;11.868;2022-09-09T04:24:17;17.30;78.50
15394;DHT22;7795;47.986;11.868;2022-09-09T04:26:43;17.30;78.60
15394;DHT22;7795;47.986;11.868;2022-09-09T04:29:10;17.30;78.80
15394;DHT22;7795;47.986;11.868;2022-09-09T04:31:36;17.30;79.00
15394;DHT22;7795;47.986;11.868;2022-09-09T04:34:03;17.20;78.90
15394;DHT22;7795;47.986;11.868;2022-09-09T04:36:31;17.20;79.00
15394;DHT22;7795;47.986;11.868;2022-09-09T04:38:57;17.20;79.10
15394;DHT22;7795;47.986;11.868;2022-09-09T04:41:23;17.20;79.10
15394;DHT22;7795;47.986;11.868;2022-09-09T04:43:49;17.20;79.20
15394;DHT22;7795;47.986;11.868;2022-09-09T04:46:16;17.20;79.20
15394;DHT22;7795;47.986;11.868;2022-09-09T04:48:43;17.20;79.30
15394;DHT22;7795;47.986;11.868;2022-09-09T04:51:12;17.20;79.30
15394;DHT22;7795;47.986;11.868;2022-09-09T04:53:39;17.20;79.50
15394;DHT22;7795;47.986;11.868;2022-09-09T04:56:07;17.20;79.50
15394;DHT22;7795;47.986;11.868;2022-09-09T04:58:33;17.20;79.50
15394;DHT22;7795;47.986;11.868;2022-09-09T05:01:07;17.20;79.50
15394;DHT22;7795;47.986;11.868;2022-09-09T05:03:35;17.20;80.00
15394;DHT22;7795;47.986;11.868;2022-09-09T05:06:05;17.20;79.70
15394;DHT22;7795;47.986;11.868;2022-09-09T05:08:31;17.20;79.90
15394;DHT22;7795;47.986;11.868;2022-09-09T05:10:57;17.20;79.70
15394;DHT22;7795;47.986;11.868;2022-09-09T05:13:25;17.20;79.70
15394;DHT22;7795;47.986;11.868;2022-09-09T05:15:51;17.20;79.70
15394;DHT22;7795;47.986;11.868;2022-09-09T05:18:18;17.20;79.80
15394;DHT22;7795;47.986;11.868;2022-09-09T05:20:45;17.20;79.80
15394;DHT22;7795;47.986;11.868;2022-09-09T05:23:11;17.20;80.00
15394;DHT22;7795;47.986;11.868;2022-09-09T05:25:38;17.20;79.90
15394;DHT22;7795;47.986;11.868;2022-09-09T05:28:04;17.20;80.00
15394;DHT22;7795;47.986;11.868;2022-09-09T05:30:30;17.20;80.00
15394;DHT22;7795;47.986;11.868;2022-09-09T05:32:56;17.20;80.10
15394;DHT22;7795;47.986;11.868;2022-09-09T05:35:22;17.20;80.20
15394;DHT22;7795;47.986;11.868;2022-09-09T05:37:50;17.30;80.30
15394;DHT22;7795;47.986;11.868;2022-09-09T05:40:15;17.20;80.40
15394;DHT22;7795;47.986;11.868;2022-09-09T05:42:41;17.30;80.40
15394;DHT22;7795;47.986;11.868;2022-09-09T05:45:08;17.30;80.50
15394;DHT22;7795;47.986;11.868;2022-09-09T05:47:34;17.30;80.60
15394;DHT22;7795;47.986;11.868;2022-09-09T05:50:00;17.30;80.70
15394;DHT22;7795;47.986;11.868;2022-09-09T05:52:26;17.40;80.80
15394;DHT22;7795;47.986;11.868;2022-09-09T05:54:54;17.40;80.80
15394;DHT22;7795;47.986;11.868;2022-09-09T05:57:21;17.40;80.90
15394;DHT22;7795;47.986;11.868;2022-09-09T05:59:47;17.50;81.00
15394;DHT22;7795;47.986;11.868;2022-09-09T06:02:13;17.50;81.00
15394;DHT22;7795;47.986;11.868;2022-09-09T06:04:39;17.50;81.00
15394;DHT22;7795;47.986;11.868;2022-09-09T06:07:05;17.60;81.00
15394;DHT22;7795;47.986;11.868;2022-09-09T06:09:31;17.60;81.00
15394;DHT22;7795;47.986;11.868;2022-09-09T06:11:58;17.60;81.00
15394;DHT22;7795;47.986;11.868;2022-09-09T06:14:24;17.70;81.20
15394;DHT22;7795;47.986;11.868;2022-09-09T06:16:52;17.70;81.20
15394;DHT22;7795;47.986;11.868;2022-09-09T06:19:18;17.70;81.10
15394;DHT22;7795;47.986;11.868;2022-09-09T06:21:44;17.80;81.20
15394;DHT22;7795;47.986;11.868;2022-09-09T06:24:10;17.80;81.20
15394;DHT22;7795;47.986;11.868;2022-09-09T06:26:38;17.80;81.20
15394;DHT22;7795;47.986;11.868;2022-09-09T06:29:07;17.80;81.20
15394;DHT22;7795;47.986;11.868;2022-09-09T06:31:35;17.90;81.30
15394;DHT22;7795;47.986;11.868;2022-09-09T06:34:04;17.90;81.20
15394;DHT22;7795;47.986;11.868;2022-09-09T06:36:32;17.90;81.30
15394;DHT22;7795;47.986;11.868;2022-09-09T06:38:58;17.90;81.30
15394;DHT22;7795;47.986;11.868;2022-09-09T06:41:27;18.00;81.30
15394;DHT22;7795;47.986;11.868;2022-09-09T06:43:53;18.00;81.50
15394;DHT22;7795;47.986;11.868;2022-09-09T06:46:22;18.00;81.40
15394;DHT22;7795;47.986;11.868;2022-09-09T06:48:48;18.00;81.60
15394;DHT22;7795;47.986;11.868;2022-09-09T06:51:15;18.10;81.60
15394;DHT22;7795;47.986;11.868;2022-09-09T06:53:43;18.10;81.80
15394;DHT22;7795;47.986;11.868;2022-09-09T06:56:21;18.10;81.80
15394;DHT22;7795;47.986;11.868;2022-09-09T06:58:49;18.10;82.40
15394;DHT22;7795;47.986;11.868;2022-09-09T07:01:16;18.20;82.80
15394;DHT22;7795;47.986;11.868;2022-09-09T07:03:46;18.20;82.10
15394;DHT22;7795;47.986;11.868;2022-09-09T07:06:14;18.20;82.20
15394;DHT22;7795;47.986;11.868;2022-09-09T07:08:42;18.30;82.20
15394;DHT22;7795;47.986;11.868;2022-09-09T07:11:08;18.30;82.20
15394;DHT22;7795;47.986;11.868;2022-09-09T07:13:35;18.40;82.20
15394;DHT22;7795;47.986;11.868;2022-09-09T07:16:04;18.40;82.20
15394;DHT22;7795;47.986;11.868;2022-09-09T07:18:30;18.40;82.40
15394;DHT22;7795;47.986;11.868;2022-09-09T07:20:57;18.50;82.20
15394;DHT22;7795;47.986;11.868;2022-09-09T07:23:23;18.50;82.30
15394;DHT22;7795;47.986;11.868;2022-09-09T07:25:49;18.50;82.20
15394;DHT22;7795;47.986;11.868;2022-09-09T07:28:16;18.60;82.20
15394;DHT22;7795;47.986;11.868;2022-09-09T07:30:42;18.60;82.90
15394;DHT22;7795;47.986;11.868;2022-09-09T07:33:08;18.60;82.00
15394;DHT22;7795;47.986;11.868;2022-09-09T07:35:35;18.70;82.00
15394;DHT22;7795;47.986;11.868;2022-09-09T07:38:04;18.70;81.90
15394;DHT22;7795;47.986;11.868;2022-09-09T07:40:32;18.70;81.90
15394;DHT22;7795;47.986;11.868;2022-09-09T07:42:58;18.80;81.80
15394;DHT22;7795;47.986;11.868;2022-09-09T07:45:24;18.80;81.60
15394;DHT22;7795;47.986;11.868;2022-09-09T07:47:50;18.80;81.60
15394;DHT22;7795;47.986;11.868;2022-09-09T07:50:16;18.80;82.50
15394;DHT22;7795;47.986;11.868;2022-09-09T07:52:42;18.90;81.70
15394;DHT22;7795;47.986;11.868;2022-09-09T07:55:09;18.90;81.80
15394;DHT22;7795;47.986;11.868;2022-09-09T07:57:36;18.90;81.70
15394;DHT22;7795;47.986;11.868;2022-09-09T08:00:03;19.00;81.60
15394;DHT22;7795;47.986;11.868;2022-09-09T08:02:29;19.00;81.60
15394;DHT22;7795;47.986;11.868;2022-09-09T08:04:55;19.00;81.60
15394;DHT22;7795;47.986;11.868;2022-09-09T08:07:21;19.00;81.50
15394;DHT22;7795;47.986;11.868;2022-09-09T08:09:47;19.10;81.60
15394;DHT22;7795;47.986;11.868;2022-09-09T08:12:16;19.00;81.20
15394;DHT22;7795;47.986;11.868;2022-09-09T08:14:42;19.00;80.60
15394;DHT22;7795;47.986;11.868;2022-09-09T08:17:08;19.00;80.30
15394;DHT22;7795;47.986;11.868;2022-09-09T08:19:33;19.00;80.10
15394;DHT22;7795;47.986;11.868;2022-09-09T08:22:01;19.00;80.00
15394;DHT22;7795;47.986;11.868;2022-09-09T08:24:27;19.00;79.90
15394;DHT22;7795;47.986;11.868;2022-09-09T08:26:53;19.00;79.70
15394;DHT22;7795;47.986;11.868;2022-09-09T08:29:20;18.90;79.60
15394;DHT22;7795;47.986;11.868;2022-09-09T08:31:47;18.90;79.70
15394;DHT22;7795;47.986;11.868;2022-09-09T08:34:14;18.90;79.80
15394;DHT22;7795;47.986;11.868;2022-09-09T08:36:42;18.90;79.70
15394;DHT22;7795;47.986;11.868;2022-09-09T08:39:09;18.90;79.70
15394;DHT22;7795;47.986;11.868;2022-09-09T08:41:58;18.90;79.70
15394;DHT22;7795;47.986;11.868;2022-09-09T08:44:41;19.00;79.90
15394;DHT22;7795;47.986;11.868;2022-09-09T08:47:18;19.00;79.90
15394;DHT22;7795;47.986;11.868;2022-09-09T08:50:00;19.00;79.90
15394;DHT22;7795;47.986;11.868;2022-09-09T08:52:30;19.00;79.90
15394;DHT22;7795;47.986;11.868;2022-09-09T08:55:02;19.00;79.80
15394;DHT22;7795;47.986;11.868;2022-09-09T08:57:31;19.10;80.00
15394;DHT22;7795;47.986;11.868;2022-09-09T08:59:59;19.10;80.00
15394;DHT22;7795;47.986;11.868;2022-09-09T09:02:27;19.10;80.00
15394;DHT22;7795;47.986;11.868;2022-09-09T09:05:09;19.10;80.10
15394;DHT22;7795;47.986;11.868;2022-09-09T09:07:46;19.10;80.30
15394;DHT22;7795;47.986;11.868;2022-09-09T09:10:25;19.10;80.30
15394;DHT22;7795;47.986;11.868;2022-09-09T09:12:56;19.10;80.30
15394;DHT22;7795;47.986;11.868;2022-09-09T09:15:26;19.20;80.30
15394;DHT22;7795;47.986;11.868;2022-09-09T09:17:52;19.20;80.50
15394;DHT22;7795;47.986;11.868;2022-09-09T09:20:22;19.20;80.40
15394;DHT22;7795;47.986;11.868;2022-09-09T09:22:51;19.20;80.40
15394;DHT22;7795;47.986;11.868;2022-09-09T09:25:19;19.20;80.40
15394;DHT22;7795;47.986;11.868;2022-09-09T09:27:51;19.20;80.50
15394;DHT22;7795;47.986;11.868;2022-09-09T09:30:20;19.20;80.60
15394;DHT22;7795;47.986;11.868;2022-09-09T09:32:53;19.30;80.60
15394;DHT22;7795;47.986;11.868;2022-09-09T09:35:20;19.30;80.70
15394;DHT22;7795;47.986;11.868;2022-09-09T09:37:45;19.30;80.60
15394;DHT22;7795;47.986;11.868;2022-09-09T09:40:13;19.30;80.70
15394;DHT22;7795;47.986;11.868;2022-09-09T09:42:48;19.30;80.70
15394;DHT22;7795;47.986;11.868;2022-09-09T09:45:18;19.30;80.80
15394;DHT22;7795;47.986;11.868;2022-09-09T09:47:46;19.30;80.70
15394;DHT22;7795;47.986;11.868;2022-09-09T09:50:20;19.30;80.60
15394;DHT22;7795;47.986;11.868;2022-09-09T09:52:54;19.30;80.90
15394;DHT22;7795;47.986;11.868;2022-09-09T09:55:21;19.30;81.00
15394;DHT22;7795;47.986;11.868;2022-09-09T09:57:48;19.30;80.90
15394;DHT22;7795;47.986;11.868;2022-09-09T10:00:16;19.30;80.90
15394;DHT22;7795;47.986;11.868;2022-09-09T10:02:44;19.40;81.00
15394;DHT22;7795;47.986;11.868;2022-09-09T10:05:14;19.40;81.10
15394;DHT22;7795;47.986;11.868;2022-09-09T10:07:41;19.40;81.20
15394;DHT22;7795;47.986;11.868;2022-09-09T10:10:15;19.40;81.30
15394;DHT22;7795;47.986;11.868;2022-09-09T10:12:50;19.40;81.40
15394;DHT22;7795;47.986;11.868;2022-09-09T10:15:32;19.40;81.50
15394;DHT22;7795;47.986;11.868;2022-09-09T10:18:13;19.40;81.50
15394;DHT22;7795;47.986;11.868;2022-09-09T10:20:48;19.50;81.50
15394;DHT22;7795;47.986;11.868;2022-09-09T10:23:29;19.50;82.10
15394;DHT22;7795;47.986;11.868;2022-09-09T10:26:11;19.50;81.70
15394;DHT22;7795;47.986;11.868;2022-09-09T10:29:01;19.50;81.40
15394;DHT22;7795;47.986;11.868;2022-09-09T10:31:37;19.50;81.50
15394;DHT22;7795;47.986;11.868;2022-09-09T10:34:15;19.50;81.40
15394;DHT22;7795;47.986;11.868;2022-09-09T10:36:46;19.50;81.30
15394;DHT22;7795;47.986;11.868;2022-09-09T10:39:35;19.60;81.20
15394;DHT22;7795;47.986;11.868;2022-09-09T10:42:05;19.60;81.20
15394;DHT22;7795;47.986;11.868;2022-09-09T10:44:50;19.60;81.10
15394;DHT22;7795;47.986;11.868;2022-09-09T10:47:39;19.60;81.20
15394;DHT22;7795;47.986;11.868;2022-09-09T10:50:24;19.60;81.20
15394;DHT22;7795;47.986;11.868;2022-09-09T10:53:00;19.70;81.00
15394;DHT22;7795;47.986;11.868;2022-09-09T10:55:37;19.70;81.70
15394;DHT22;7795;47.986;11.868;2022-09-09T10:58:05;19.70;80.80
15394;DHT22;7795;47.986;11.868;2022-09-09T11:00:38;19.70;80.70
15394;DHT22;7795;47.986;11.868;2022-09-09T11:03:06;19.70;80.50
15394;DHT22;7795;47.986;11.868;2022-09-09T11:05:38;19.80;80.30
15394;DHT22;7795;47.986;11.868;2022-09-09T11:08:10;19.80;80.20
15394;DHT22;7795;47.986;11.868;2022-09-09T11:10:41;19.80;80.20
15394;DHT22;7795;47.986;11.868;2022-09-09T11:13:13;19.80;80.20
15394;DHT22;7795;47.986;11.868;2022-09-09T11:15:44;19.80;80.20
15394;DHT22;7795;47.986;11.868;2022-09-09T11:18:13;19.80;80.10
15394;DHT22;7795;47.986;11.868;2022-09-09T11:20:41;19.80;80.10
15394;DHT22;7795;47.986;11.868;2022-09-09T11:23:11;19.80;80.00
15394;DHT22;7795;47.986;11.868;2022-09-09T11:25:43;19.80;79.90
15394;DHT22;7795;47.986;11.868;2022-09-09T11:28:26;19.80;80.00
15394;DHT22;7795;47.986;11.868;2022-09-09T11:31:02;19.80;80.20
15394;DHT22;7795;47.986;11.868;2022-09-09T11:33:42;19.80;81.10
15394;DHT22;7795;47.986;11.868;2022-09-09T11:36:39;19.80;80.30
15394;DHT22;7795;47.986;11.868;2022-09-09T11:39:33;19.80;80.30
15394;DHT22;7795;47.986;11.868;2022-09-09T11:42:07;19.90;80.30
15394;DHT22;7795;47.986;11.868;2022-09-09T11:44:41;19.90;80.20
15394;DHT22;7795;47.986;11.868;2022-09-09T11:47:19;19.90;80.10
15394;DHT22;7795;47.986;11.868;2022-09-09T11:49:47;19.90;80.10
15394;DHT22;7795;47.986;11.868;2022-09-09T11:52:21;19.90;80.10
15394;DHT22;7795;47.986;11.868;2022-09-09T11:54:49;19.90;80.00
15394;DHT22;7795;47.986;11.868;2022-09-09T11:57:25;19.90;80.00
15394;DHT22;7795;47.986;11.868;2022-09-09T11:59:52;19.90;79.80
15394;DHT22;7795;47.986;11.868;2022-09-09T12:02:22;20.00;79.90
15394;DHT22;7795;47.986;11.868;2022-09-09T12:04:55;20.00;80.00
15394;DHT22;7795;47.986;11.868;2022-09-09T12:07:30;20.00;80.00
15394;DHT22;7795;47.986;11.868;2022-09-09T12:10:00;20.10;80.00
15394;DHT22;7795;47.986;11.868;2022-09-09T12:12:31;20.10;80.00
15394;DHT22;7795;47.986;11.868;2022-09-09T12:15:00;20.20;79.90
15394;DHT22;7795;47.986;11.868;2022-09-09T12:17:27;20.20;79.70
15394;DHT22;7795;47.986;11.868;2022-09-09T12:20:02;20.30;79.70
15394;DHT22;7795;47.986;11.868;2022-09-09T12:22:35;20.40;79.50
15394;DHT22;7795;47.986;11.868;2022-09-09T12:25:09;20.40;79.20
15394;DHT22;7795;47.986;11.868;2022-09-09T12:27:49;20.50;79.10
15394;DHT22;7795;47.986;11.868;2022-09-09T12:30:17;20.60;78.90
15394;DHT22;7795;47.986;11.868;2022-09-09T12:32:43;20.60;78.90
15394;DHT22;7795;47.986;11.868;2022-09-09T12:35:13;20.70;78.80
15394;DHT22;7795;47.986;11.868;2022-09-09T12:37:47;20.70;78.20
15394;DHT22;7795;47.986;11.868;2022-09-09T12:40:21;20.80;78.20
15394;DHT22;7795;47.986;11.868;2022-09-09T12:42:49;20.80;77.90
15394;DHT22;7795;47.986;11.868;2022-09-09T12:45:17;20.80;77.90
15394;DHT22;7795;47.986;11.868;2022-09-09T12:47:46;20.90;77.80
15394;DHT22;7795;47.986;11.868;2022-09-09T12:50:18;20.90;77.60
15394;DHT22;7795;47.986;11.868;2022-09-09T12:52:45;20.90;77.60
15394;DHT22;7795;47.986;11.868;2022-09-09T12:55:17;21.00;77.70
15394;DHT22;7795;47.986;11.868;2022-09-09T12:57:43;21.00;77.50
15394;DHT22;7795;47.986;11.868;2022-09-09T13:00:16;21.00;77.40
15394;DHT22;7795;47.986;11.868;2022-09-09T13:02:47;21.00;77.10
15394;DHT22;7795;47.986;11.868;2022-09-09T13:05:15;21.10;77.10
15394;DHT22;7795;47.986;11.868;2022-09-09T13:07:42;21.10;77.10
15394;DHT22;7795;47.986;11.868;2022-09-09T13:10:11;21.10;77.10
15394;DHT22;7795;47.986;11.868;2022-09-09T13:12:37;21.10;77.00
15394;DHT22;7795;47.986;11.868;2022-09-09T13:15:04;21.10;76.90
15394;DHT22;7795;47.986;11.868;2022-09-09T13:17:37;21.20;76.70
15394;DHT22;7795;47.986;11.868;2022-09-09T13:20:05;21.20;76.70
15394;DHT22;7795;47.986;11.868;2022-09-09T13:22:34;21.20;76.60
15394;DHT22;7795;47.986;11.868;2022-09-09T13:25:03;21.20;76.50
15394;DHT22;7795;47.986;11.868;2022-09-09T13:27:32;21.20;76.50
15394;DHT22;7795;47.986;11.868;2022-09-09T13:30:00;21.20;76.50
15394;DHT22;7795;47.986;11.868;2022-09-09T13:32:27;21.20;77.20
15394;DHT22;7795;47.986;11.868;2022-09-09T13:34:56;21.20;76.40
15394;DHT22;7795;47.986;11.868;2022-09-09T13:37:25;21.20;76.20
15394;DHT22;7795;47.986;11.868;2022-09-09T13:39:53;21.20;76.30
15394;DHT22;7795;47.986;11.868;2022-09-09T13:42:24;21.20;76.40
15394;DHT22;7795;47.986;11.868;2022-09-09T13:44:51;21.20;76.20
15394;DHT22;7795;47.986;11.868;2022-09-09T13:47:19;21.30;76.40
15394;DHT22;7795;47.986;11.868;2022-09-09T13:49:48;21.30;76.40
15394;DHT22;7795;47.986;11.868;2022-09-09T13:52:17;21.30;76.40
15394;DHT22;7795;47.986;11.868;2022-09-09T13:54:47;21.30;76.40
15394;DHT22;7795;47.986;11.868;2022-09-09T13:57:15;21.30;76.30
15394;DHT22;7795;47.986;11.868;2022-09-09T13:59:42;21.30;76.20
15394;DHT22;7795;47.986;11.868;2022-09-09T14:02:08;21.40;76.10
15394;DHT22;7795;47.986;11.868;2022-09-09T14:04:34;21.40;76.10
15394;DHT22;7795;47.986;11.868;2022-09-09T14:07:00;21.40;76.10
15394;DHT22;7795;47.986;11.868;2022-09-09T14:09:27;21.40;76.10
15394;DHT22;7795;47.986;11.868;2022-09-09T14:11:53;21.40;76.00
15394;DHT22;7795;47.986;11.868;2022-09-09T14:14:20;21.40;76.00
15394;DHT22;7795;47.986;11.868;2022-09-09T14:16:46;21.40;76.10
15394;DHT22;7795;47.986;11.868;2022-09-09T14:19:12;21.40;76.20
15394;DHT22;7795;47.986;11.868;2022-09-09T14:21:38;21.50;76.20
15394;DHT22;7795;47.986;11.868;2022-09-09T14:24:04;21.50;76.10
15394;DHT22;7795;47.986;11.868;2022-09-09T14:26:31;21.50;76.10
15394;DHT22;7795;47.986;11.868;2022-09-09T14:28:57;21.50;76.10
15394;DHT22;7795;47.986;11.868;2022-09-09T14:31:23;21.50;75.90
15394;DHT22;7795;47.986;11.868;2022-09-09T14:33:49;21.50;76.00
15394;DHT22;7795;47.986;11.868;2022-09-09T14:36:16;21.50;76.00
15394;DHT22;7795;47.986;11.868;2022-09-09T14:38:42;21.50;76.10
15394;DHT22;7795;47.986;11.868;2022-09-09T14:41:09;21.50;76.10
15394;DHT22;7795;47.986;11.868;2022-09-09T14:43:37;21.50;76.10
15394;DHT22;7795;47.986;11.868;2022-09-09T14:46:06;21.50;76.30
15394;DHT22;7795;47.986;11.868;2022-09-09T14:48:32;21.50;76.30
15394;DHT22;7795;47.986;11.868;2022-09-09T14:51:05;21.50;76.40
15394;DHT22;7795;47.986;11.868;2022-09-09T14:53:31;21.60;77.20
15394;DHT22;7795;47.986;11.868;2022-09-09T14:56:03;21.60;76.60
15394;DHT22;7795;47.986;11.868;2022-09-09T14:58:30;21.60;76.20
15394;DHT22;7795;47.986;11.868;2022-09-09T15:01:03;21.60;76.20
15394;DHT22;7795;47.986;11.868;2022-09-09T15:03:29;21.60;76.20
15394;DHT22;7795;47.986;11.868;2022-09-09T15:05:55;21.60;76.30
15394;DHT22;7795;47.986;11.868;2022-09-09T15:08:20;21.60;76.30
15394;DHT22;7795;47.986;11.868;2022-09-09T15:10:46;21.60;76.30
15394;DHT22;7795;47.986;11.868;2022-09-09T15:13:14;21.70;76.10
15394;DHT22;7795;47.986;11.868;2022-09-09T15:15:42;21.70;76.00
15394;DHT22;7795;47.986;11.868;2022-09-09T15:18:09;21.70;76.00
15394;DHT22;7795;47.986;11.868;2022-09-09T15:20:35;21.70;75.90
15394;DHT22;7795;47.986;11.868;2022-09-09T15:23:02;21.70;76.30
15394;DHT22;7795;47.986;11.868;2022-09-09T15:25:28;21.80;75.70
15394;DHT22;7795;47.986;11.868;2022-09-09T15:27:54;21.80;75.10
15394;DHT22;7795;47.986;11.868;2022-09-09T15:30:21;21.80;74.60
15394;DHT22;7795;47.986;11.868;2022-09-09T15:32:47;21.80;74.10
15394;DHT22;7795;47.986;11.868;2022-09-09T15:35:14;21.80;74.00
15394;DHT22;7795;47.986;11.868;2022-09-09T15:37:40;21.80;73.80
15394;DHT22;7795;47.986;11.868;2022-09-09T15:40:07;21.90;73.80
15394;DHT22;7795;47.986;11.868;2022-09-09T15:42:33;21.90;73.50
15394;DHT22;7795;47.986;11.868;2022-09-09T15:44:59;21.90;73.50